YAYE/AYQ METAR and TAF weather

Enter ICAO airport designator
Station Type Date Time Source
YAYE METAR 2019/08/24 17:00 UTC NOAA

YAYE 241700Z AUTO 19008KT 9999 // NCD 10/M00 Q1020


Station Type Date Time Source
YAYE Decoded METAR 2019/08/24 17:00 UTC NOAA

Station name not available
Aug 24, 2019 - 01:00 PM EDT / 2019.08.24 1700 UTC
Wind: from the S (190 degrees) at 9 MPH (8 KT):0
Visibility: greater than 7 mile(s):0
Temperature: 50 F (10 C)
Dew Point: 32 F (0 C)
Relative Humidity: 49%
Pressure (altimeter): 30.12 in. Hg (1020 hPa)
ob: YAYE 241700Z AUTO 19008KT 9999 // NCD 10/M00 Q1020
cycle: 17

Station Type Date Time Source
YAYE TAF UTC NOAA

Error!

Example: see airport list